Time;durP1;ratioP1;P1;durP2;ratioP2;P2;SDS_P1;SDS_P2;PMS_P1;PMS_P2;Temp;Humidity;BMP_temperature;BMP_pressure;BME280_temperature;BME280_humidity;BME280_pressure;Samples;Min_cycle;Max_cycle;Signal;HPM_P1;HPM_P2
2021/12/29 00:00:17;;;;;;;218.23;81.93;;;;;;;;;;4994100;28;20038;-73
2021/12/29 00:02:43;;;;;;;198.32;81.93;;;;;;;;;;4992979;28;20044;-73
2021/12/29 00:05:10;;;;;;;187.77;73.43;;;;;;;;;;4996222;28;20030;-73
2021/12/29 00:07:37;;;;;;;173.18;72.55;;;;;;;;;;5003760;28;20187;-74
2021/12/29 00:10:04;;;;;;;167.20;71.68;;;;;;;;;;5002046;28;20109;-74
2021/12/29 00:12:34;;;;;;;189.68;73.05;;;;;;;;;;5003537;28;20026;-74
2021/12/29 00:15:01;;;;;;;190.27;75.20;;;;;;;;;;4995700;28;20030;-74
2021/12/29 00:17:27;;;;;;;196.80;75.75;;;;;;;;;;4993795;28;20035;-74
2021/12/29 00:19:53;;;;;;;221.35;78.80;;;;;;;;;;4995522;28;20476;-74
2021/12/29 00:22:19;;;;;;;220.90;77.78;;;;;;;;;;4993160;28;20391;-73
2021/12/29 00:24:51;;;;;;;194.18;73.10;;;;;;;;;;4997024;28;20026;-77
2021/12/29 00:27:17;;;;;;;242.48;83.88;;;;;;;;;;5002289;28;20109;-77
2021/12/29 00:29:43;;;;;;;236.52;83.57;;;;;;;;;;5001357;28;20030;-78
2021/12/29 00:32:10;;;;;;;264.55;85.60;;;;;;;;;;5000277;28;20113;-78
2021/12/29 00:34:36;;;;;;;250.80;84.93;;;;;;;;;;4995209;28;20015;-74
2021/12/29 00:37:03;;;;;;;247.88;82.63;;;;;;;;;;4981574;28;20050;-74
2021/12/29 00:39:30;;;;;;;313.83;90.32;;;;;;;;;;5001732;28;20490;-74
2021/12/29 00:41:56;;;;;;;254.52;80.10;;;;;;;;;;4994678;28;20031;-73
2021/12/29 00:44:22;;;;;;;223.27;77.78;;;;;;;;;;4994985;28;20054;-72
2021/12/29 00:46:52;;;;;;;299.88;89.40;;;;;;;;;;4998247;28;20036;-74
2021/12/29 00:49:19;;;;;;;262.90;83.57;;;;;;;;;;4993843;28;20117;-73
2021/12/29 00:51:45;;;;;;;221.32;74.22;;;;;;;;;;4993907;28;20106;-73
2021/12/29 00:54:11;;;;;;;185.35;66.18;;;;;;;;;;4994663;28;20035;-74
2021/12/29 00:56:39;;;;;;;232.27;76.82;;;;;;;;;;4994279;28;20098;-75
2021/12/29 00:59:06;;;;;;;213.00;73.50;;;;;;;;;;4998044;28;20018;-74
2021/12/29 01:01:32;;;;;;;200.57;72.78;;;;;;;;;;4993058;28;20046;-74
2021/12/29 01:03:59;;;;;;;184.45;68.40;;;;;;;;;;5002685;28;20018;-74
2021/12/29 01:06:25;;;;;;;193.90;68.00;;;;;;;;;;4999306;28;20022;-73
2021/12/29 01:08:51;;;;;;;190.07;69.65;;;;;;;;;;4993637;28;20118;-73
2021/12/29 01:11:17;;;;;;;187.13;68.18;;;;;;;;;;4994186;28;20101;-75
2021/12/29 01:13:47;;;;;;;185.70;69.68;;;;;;;;;;4994773;28;20037;-75
2021/12/29 01:19:01;;;;;;;180.45;69.97;;;;;;;;;;4997652;28;20392;-75
2021/12/29 01:21:28;;;;;;;177.38;67.75;;;;;;;;;;5013806;28;20025;-75
2021/12/29 01:23:54;;;;;;;160.43;63.33;;;;;;;;;;5012675;28;20021;-74
2021/12/29 01:26:20;;;;;;;150.55;62.65;;;;;;;;;;5014253;28;20109;-74
2021/12/29 01:28:46;;;;;;;147.52;61.88;;;;;;;;;;4997000;28;20030;-73
2021/12/29 01:31:12;;;;;;;156.07;65.38;;;;;;;;;;4994162;28;20030;-74
2021/12/29 01:33:38;;;;;;;150.65;63.33;;;;;;;;;;4995160;28;20033;-76
2021/12/29 01:36:04;;;;;;;147.13;62.65;;;;;;;;;;4999366;28;20497;-74
2021/12/29 01:38:30;;;;;;;142.88;62.70;;;;;;;;;;4995426;28;20034;-76
2021/12/29 01:40:57;;;;;;;136.88;61.13;;;;;;;;;;4995000;28;20029;-74
2021/12/29 01:43:23;;;;;;;136.82;59.75;;;;;;;;;;4994442;28;20035;-76
2021/12/29 01:45:49;;;;;;;124.75;58.30;;;;;;;;;;5007192;28;20030;-74
2021/12/29 01:48:18;;;;;;;131.02;59.80;;;;;;;;;;4999109;28;20070;-75
2021/12/29 01:50:49;;;;;;;127.30;60.55;;;;;;;;;;4994202;28;20503;-73
2021/12/29 01:53:22;;;;;;;147.45;65.10;;;;;;;;;;4996411;28;20073;-75
2021/12/29 01:55:51;;;;;;;142.30;65.30;;;;;;;;;;5013612;28;20029;-77
2021/12/29 01:58:18;;;;;;;131.63;58.80;;;;;;;;;;5003719;28;20149;-75
2021/12/29 02:00:44;;;;;;;135.45;59.90;;;;;;;;;;4993719;28;20050;-76
2021/12/29 02:03:10;;;;;;;152.35;65.03;;;;;;;;;;5007490;28;20105;-75
2021/12/29 02:05:36;;;;;;;144.95;63.65;;;;;;;;;;4996885;28;20037;-76
2021/12/29 02:08:04;;;;;;;143.38;61.95;;;;;;;;;;4998366;28;20041;-73
2021/12/29 02:10:35;;;;;;;141.88;63.58;;;;;;;;;;5014607;28;20037;-73
2021/12/29 02:13:01;;;;;;;147.60;63.53;;;;;;;;;;5004243;28;20041;-74
2021/12/29 02:15:27;;;;;;;148.38;64.93;;;;;;;;;;4997937;28;20105;-76
2021/12/29 02:17:56;;;;;;;149.13;64.68;;;;;;;;;;4999304;28;20027;-74
2021/12/29 02:20:27;;;;;;;138.75;62.00;;;;;;;;;;5012043;28;20396;-77
2021/12/29 02:23:12;;;;;;;122.00;57.83;;;;;;;;;;4997244;28;20427;-76
2021/12/29 02:25:49;;;;;;;121.38;59.60;;;;;;;;;;4977696;28;20031;-75
2021/12/29 02:28:16;;;;;;;130.68;59.17;;;;;;;;;;4994935;28;20038;-75
2021/12/29 02:30:42;;;;;;;129.77;59.10;;;;;;;;;;4999339;28;20257;-78
2021/12/29 02:33:13;;;;;;;124.32;57.80;;;;;;;;;;5007699;28;20045;-74
2021/12/29 02:35:39;;;;;;;115.85;56.38;;;;;;;;;;4999105;28;20018;-75
2021/12/29 02:38:09;;;;;;;108.32;54.65;;;;;;;;;;4997751;28;20124;-74
2021/12/29 02:40:37;;;;;;;103.07;55.65;;;;;;;;;;5011708;28;20084;-73
2021/12/29 02:43:04;;;;;;;110.75;57.55;;;;;;;;;;4996757;28;20022;-76
2021/12/29 02:45:33;;;;;;;104.93;53.85;;;;;;;;;;4989431;28;20027;-74
2021/12/29 02:47:59;;;;;;;131.10;58.88;;;;;;;;;;4984183;28;20089;-75
2021/12/29 02:50:30;;;;;;;132.82;60.75;;;;;;;;;;4996406;28;20029;-74
2021/12/29 02:52:56;;;;;;;145.93;61.92;;;;;;;;;;5000048;28;20150;-75
2021/12/29 02:55:24;;;;;;;155.43;64.75;;;;;;;;;;4996983;28;20039;-74
2021/12/29 02:57:50;;;;;;;151.63;66.70;;;;;;;;;;4996792;28;20029;-76
2021/12/29 03:00:28;;;;;;;184.20;71.25;;;;;;;;;;5004647;28;20034;-76
2021/12/29 03:02:54;;;;;;;140.50;62.95;;;;;;;;;;4975221;28;20035;-76
2021/12/29 03:05:23;;;;;;;175.68;69.85;;;;;;;;;;4977893;28;20026;-73
2021/12/29 03:07:50;;;;;;;191.18;72.45;;;;;;;;;;4976273;28;20031;-76
2021/12/29 03:10:16;;;;;;;166.70;70.47;;;;;;;;;;4995752;28;20383;-75
2021/12/29 03:12:42;;;;;;;167.82;68.55;;;;;;;;;;4989495;28;20090;-77
2021/12/29 03:15:08;;;;;;;174.23;70.20;;;;;;;;;;4997432;28;20066;-78
2021/12/29 03:17:34;;;;;;;199.15;75.00;;;;;;;;;;4979480;28;20027;-77
2021/12/29 03:20:00;;;;;;;183.70;72.07;;;;;;;;;;4988867;28;20031;-76
2021/12/29 03:22:26;;;;;;;209.75;74.72;;;;;;;;;;4978504;28;20109;-75
2021/12/29 03:24:54;;;;;;;190.38;71.68;;;;;;;;;;4982356;28;20035;-74
2021/12/29 03:27:20;;;;;;;184.23;71.43;;;;;;;;;;4977607;28;20163;-77
2021/12/29 03:29:47;;;;;;;198.48;73.45;;;;;;;;;;4979655;28;20621;-76
2021/12/29 03:32:21;;;;;;;149.20;63.72;;;;;;;;;;4966952;28;20035;-75
2021/12/29 03:34:49;;;;;;;146.18;63.70;;;;;;;;;;4973207;28;20523;-75
2021/12/29 03:37:15;;;;;;;161.30;67.57;;;;;;;;;;4974674;28;20034;-73
2021/12/29 03:39:41;;;;;;;144.38;63.30;;;;;;;;;;4976840;28;20023;-75
2021/12/29 03:42:07;;;;;;;135.85;60.95;;;;;;;;;;4962074;28;20034;-73
2021/12/29 03:44:34;;;;;;;157.63;67.82;;;;;;;;;;4967188;28;20023;-76
2021/12/29 03:47:04;;;;;;;155.07;68.20;;;;;;;;;;4976423;28;20023;-75
2021/12/29 03:49:35;;;;;;;191.50;75.55;;;;;;;;;;4993247;28;20057;-74
2021/12/29 03:52:03;;;;;;;137.73;63.45;;;;;;;;;;4976752;28;20419;-74
2021/12/29 03:54:31;;;;;;;144.77;63.63;;;;;;;;;;4988890;28;20037;-76
2021/12/29 03:57:00;;;;;;;134.70;61.30;;;;;;;;;;4975771;28;20027;-73
2021/12/29 03:59:27;;;;;;;126.13;59.92;;;;;;;;;;4987191;28;20045;-73
2021/12/29 04:01:54;;;;;;;130.35;59.42;;;;;;;;;;4987041;28;20097;-75
2021/12/29 04:04:20;;;;;;;134.35;60.25;;;;;;;;;;4997470;28;20034;-73
2021/12/29 04:06:47;;;;;;;126.35;60.15;;;;;;;;;;4996072;28;20061;-75
2021/12/29 04:09:13;;;;;;;131.63;63.67;;;;;;;;;;5005236;28;20518;-75
2021/12/29 04:11:39;;;;;;;149.30;62.97;;;;;;;;;;4998746;28;20495;-73
2021/12/29 04:14:07;;;;;;;128.85;59.22;;;;;;;;;;4995866;28;20392;-73
2021/12/29 04:16:36;;;;;;;152.18;73.63;;;;;;;;;;4995031;28;20026;-74
2021/12/29 04:22:03;;;;;;;133.77;61.60;;;;;;;;;;4953556;29;20031;-75
2021/12/29 04:24:29;;;;;;;152.85;75.07;;;;;;;;;;4948428;29;20114;-73
2021/12/29 04:26:55;;;;;;;147.05;68.97;;;;;;;;;;4954638;28;20484;-73
2021/12/29 04:29:21;;;;;;;182.90;87.57;;;;;;;;;;4965289;28;20035;-74
2021/12/29 04:31:47;;;;;;;186.60;79.30;;;;;;;;;;4954339;28;20118;-76
2021/12/29 04:34:14;;;;;;;136.63;62.80;;;;;;;;;;4954783;29;20500;-74
2021/12/29 04:36:42;;;;;;;142.75;68.40;;;;;;;;;;4958052;28;20070;-75
2021/12/29 04:39:11;;;;;;;166.30;74.30;;;;;;;;;;4956316;29;20036;-74
2021/12/29 04:41:37;;;;;;;211.05;89.72;;;;;;;;;;4955738;28;20038;-73
2021/12/29 04:44:03;;;;;;;193.48;81.05;;;;;;;;;;4954161;29;20496;-75
2021/12/29 04:46:38;;;;;;;201.98;75.57;;;;;;;;;;4961440;29;20058;-75
2021/12/29 04:49:08;;;;;;;145.75;69.80;;;;;;;;;;4955297;28;20050;-74
2021/12/29 04:51:36;;;;;;;147.25;63.03;;;;;;;;;;4938851;29;20035;-74
2021/12/29 04:54:05;;;;;;;136.30;61.08;;;;;;;;;;4954807;29;20041;-75
2021/12/29 04:56:32;;;;;;;130.82;58.88;;;;;;;;;;4954388;28;20472;-76
2021/12/29 04:59:04;;;;;;;128.85;57.55;;;;;;;;;;4997896;28;20077;-75
2021/12/29 05:01:37;;;;;;;153.48;57.38;;;;;;;;;;4997301;28;20050;-75
2021/12/29 05:04:04;;;;;;;142.70;55.08;;;;;;;;;;4989634;28;20036;-75
2021/12/29 05:09:17;;;;;;;114.18;54.47;;;;;;;;;;5008241;28;20053;-74
2021/12/29 05:11:46;;;;;;;128.60;55.72;;;;;;;;;;4994964;28;20432;-75
2021/12/29 05:14:13;;;;;;;117.50;53.83;;;;;;;;;;4994621;28;20102;-75
2021/12/29 05:16:39;;;;;;;108.07;51.67;;;;;;;;;;4993756;28;20027;-74
2021/12/29 05:19:06;;;;;;;96.57;50.20;;;;;;;;;;5004038;28;20097;-73
2021/12/29 05:21:34;;;;;;;121.47;55.28;;;;;;;;;;5011001;28;20037;-75
2021/12/29 05:24:05;;;;;;;129.38;56.42;;;;;;;;;;4996388;28;20086;-74
2021/12/29 05:26:31;;;;;;;119.05;54.72;;;;;;;;;;5010242;28;20031;-76
2021/12/29 05:28:57;;;;;;;112.18;53.78;;;;;;;;;;4997425;28;20447;-75
2021/12/29 05:31:25;;;;;;;114.28;54.90;;;;;;;;;;4994998;28;20034;-74
2021/12/29 05:33:51;;;;;;;122.70;55.60;;;;;;;;;;4994923;28;20101;-74
2021/12/29 05:36:17;;;;;;;124.20;56.08;;;;;;;;;;4993268;28;20031;-74
2021/12/29 05:38:43;;;;;;;115.88;54.33;;;;;;;;;;4999543;28;20081;-75
2021/12/29 05:41:09;;;;;;;142.63;59.60;;;;;;;;;;5009383;28;20448;-75
2021/12/29 05:43:35;;;;;;;125.18;59.17;;;;;;;;;;4994321;28;20097;-75
2021/12/29 05:46:01;;;;;;;126.63;60.13;;;;;;;;;;4994308;28;20050;-75
2021/12/29 05:48:27;;;;;;;116.13;57.28;;;;;;;;;;4994122;28;20085;-74
2021/12/29 05:50:57;;;;;;;140.88;62.33;;;;;;;;;;4999518;28;20030;-74
2021/12/29 05:53:23;;;;;;;142.60;60.83;;;;;;;;;;4998207;28;20018;-76
2021/12/29 05:55:49;;;;;;;120.82;58.70;;;;;;;;;;4997581;28;20109;-74
2021/12/29 05:58:17;;;;;;;145.18;62.58;;;;;;;;;;4997558;28;20026;-73
2021/12/29 06:00:44;;;;;;;112.50;55.83;;;;;;;;;;5001843;28;20038;-75
2021/12/29 06:03:10;;;;;;;131.35;57.05;;;;;;;;;;5000211;28;20038;-75
2021/12/29 06:05:37;;;;;;;106.18;52.15;;;;;;;;;;4998719;28;20058;-74
2021/12/29 06:08:03;;;;;;;150.40;59.13;;;;;;;;;;5005186;28;20069;-75
2021/12/29 06:10:31;;;;;;;141.20;59.00;;;;;;;;;;4996994;28;20026;-74
2021/12/29 06:12:57;;;;;;;126.88;58.33;;;;;;;;;;4996952;28;20014;-74
2021/12/29 06:15:23;;;;;;;150.98;64.05;;;;;;;;;;5000565;28;20030;-75
2021/12/29 06:17:49;;;;;;;117.57;60.85;;;;;;;;;;4997725;28;20026;-75
2021/12/29 06:20:27;;;;;;;141.88;63.90;;;;;;;;;;5009220;28;20096;-74
2021/12/29 06:22:53;;;;;;;101.68;53.03;;;;;;;;;;4988231;28;20491;-75
2021/12/29 06:25:19;;;;;;;124.38;59.30;;;;;;;;;;4996415;28;20110;-75
2021/12/29 06:27:45;;;;;;;109.40;56.78;;;;;;;;;;4998136;28;20026;-76
2021/12/29 06:30:13;;;;;;;105.47;54.03;;;;;;;;;;5000406;28;20046;-76
2021/12/29 06:32:39;;;;;;;105.20;52.95;;;;;;;;;;4997089;28;20022;-75
2021/12/29 06:35:06;;;;;;;113.40;54.47;;;;;;;;;;4995904;28;20030;-76
2021/12/29 06:37:32;;;;;;;97.63;52.42;;;;;;;;;;4996890;28;20137;-75
2021/12/29 06:39:59;;;;;;;93.47;49.60;;;;;;;;;;5010880;28;20038;-74
2021/12/29 06:42:25;;;;;;;107.90;53.35;;;;;;;;;;4996307;28;20105;-74
2021/12/29 06:44:51;;;;;;;96.32;49.58;;;;;;;;;;5005029;28;20081;-76
2021/12/29 06:47:17;;;;;;;97.38;51.70;;;;;;;;;;5023756;28;20061;-76
2021/12/29 06:49:44;;;;;;;95.95;51.75;;;;;;;;;;5014827;28;20070;-76
2021/12/29 06:52:10;;;;;;;88.85;48.58;;;;;;;;;;5012044;28;20030;-75
2021/12/29 06:54:36;;;;;;;116.75;55.42;;;;;;;;;;5018143;28;20026;-74
2021/12/29 06:57:03;;;;;;;130.63;61.05;;;;;;;;;;5014267;28;20033;-74
2021/12/29 06:59:31;;;;;;;103.57;53.30;;;;;;;;;;4997164;28;20030;-76
2021/12/29 07:01:57;;;;;;;119.55;62.42;;;;;;;;;;5001845;28;20543;-74
2021/12/29 07:04:23;;;;;;;112.57;58.75;;;;;;;;;;4991750;28;20022;-76
2021/12/29 07:06:50;;;;;;;139.20;66.78;;;;;;;;;;4996917;28;20030;-78
2021/12/29 07:09:17;;;;;;;127.88;63.83;;;;;;;;;;5001332;28;20038;-74
2021/12/29 07:11:43;;;;;;;160.98;76.85;;;;;;;;;;4998078;28;20022;-74
2021/12/29 07:14:09;;;;;;;134.45;72.57;;;;;;;;;;4993429;28;20395;-74
2021/12/29 07:16:36;;;;;;;138.18;72.30;;;;;;;;;;4986311;28;20626;-74
2021/12/29 07:19:05;;;;;;;138.40;77.43;;;;;;;;;;4992787;28;20152;-75
2021/12/29 07:21:31;;;;;;;156.90;96.45;;;;;;;;;;5007836;28;20798;-75
2021/12/29 07:23:58;;;;;;;152.88;91.15;;;;;;;;;;4993351;28;20033;-75
2021/12/29 07:26:24;;;;;;;164.25;96.93;;;;;;;;;;4996060;28;20049;-75
2021/12/29 07:28:53;;;;;;;142.10;81.20;;;;;;;;;;4998240;28;20044;-75
2021/12/29 07:31:19;;;;;;;134.02;73.90;;;;;;;;;;5004681;28;20035;-78
2021/12/29 07:33:48;;;;;;;133.68;76.13;;;;;;;;;;4995526;28;20057;-76
2021/12/29 07:36:14;;;;;;;110.18;63.30;;;;;;;;;;5007408;28;20018;-77
2021/12/29 07:38:44;;;;;;;125.18;69.75;;;;;;;;;;5008458;28;20077;-76
2021/12/29 07:41:10;;;;;;;122.45;71.55;;;;;;;;;;4999625;28;20030;-78
2021/12/29 07:43:39;;;;;;;122.53;71.05;;;;;;;;;;5002606;28;20061;-76
2021/12/29 07:46:17;;;;;;;111.63;62.70;;;;;;;;;;4995100;28;20073;-78
2021/12/29 07:48:44;;;;;;;99.30;57.53;;;;;;;;;;4997380;28;20093;-72
2021/12/29 07:51:10;;;;;;;96.88;61.60;;;;;;;;;;4991899;28;20033;-76
2021/12/29 07:53:37;;;;;;;128.60;77.97;;;;;;;;;;4996447;28;20033;-76
2021/12/29 07:56:05;;;;;;;163.27;97.28;;;;;;;;;;4987805;28;20033;-76
2021/12/29 07:58:31;;;;;;;155.82;93.28;;;;;;;;;;5005389;28;20030;-76
2021/12/29 08:00:57;;;;;;;127.93;76.68;;;;;;;;;;4994111;28;20074;-74
2021/12/29 08:03:24;;;;;;;109.63;68.03;;;;;;;;;;5003440;28;20034;-76
2021/12/29 08:05:50;;;;;;;91.72;55.33;;;;;;;;;;5006648;28;20030;-74
2021/12/29 08:08:16;;;;;;;85.47;51.72;;;;;;;;;;4994398;28;20027;-74
2021/12/29 08:10:42;;;;;;;88.32;53.30;;;;;;;;;;4994461;28;20038;-75
2021/12/29 08:13:09;;;;;;;78.53;49.30;;;;;;;;;;4994795;28;20491;-74
2021/12/29 08:15:35;;;;;;;80.63;53.05;;;;;;;;;;5003336;28;20022;-75
2021/12/29 08:18:04;;;;;;;90.88;56.00;;;;;;;;;;4998249;28;20037;-75
2021/12/29 08:20:32;;;;;;;107.80;66.05;;;;;;;;;;5002411;28;20027;-75
2021/12/29 08:22:59;;;;;;;107.20;66.07;;;;;;;;;;4994536;28;20121;-75
2021/12/29 08:25:27;;;;;;;90.85;58.75;;;;;;;;;;4988003;28;20484;-75
2021/12/29 08:27:53;;;;;;;82.00;54.33;;;;;;;;;;4992780;28;20058;-75
2021/12/29 08:30:19;;;;;;;68.22;45.95;;;;;;;;;;4999879;28;20050;-74
2021/12/29 08:32:46;;;;;;;71.68;45.70;;;;;;;;;;4993585;28;20018;-73
2021/12/29 08:35:12;;;;;;;82.90;54.40;;;;;;;;;;4999879;28;20034;-78
2021/12/29 08:37:40;;;;;;;95.57;61.63;;;;;;;;;;4994764;28;20030;-75
2021/12/29 08:40:07;;;;;;;83.63;55.42;;;;;;;;;;4998964;28;20101;-76
2021/12/29 08:42:34;;;;;;;80.88;57.33;;;;;;;;;;4997725;28;20538;-76
2021/12/29 08:45:02;;;;;;;82.30;56.38;;;;;;;;;;5012616;28;20479;-77
2021/12/29 08:48:09;;;;;;;73.45;50.70;;;;;;;;;;5002513;28;20076;-78
2021/12/29 08:50:44;;;;;;;63.53;43.00;;;;;;;;;;5020625;28;20048;-78
2021/12/29 08:53:11;;;;;;;52.70;38.72;;;;;;;;;;5008244;28;20022;-75
2021/12/29 08:55:44;;;;;;;59.03;41.80;;;;;;;;;;4992829;28;20034;-76
2021/12/29 08:58:16;;;;;;;68.10;46.53;;;;;;;;;;5006467;28;20030;-75
2021/12/29 09:03:32;;;;;;;58.50;39.65;;;;;;;;;;3264016;26;20038;-70
2021/12/29 09:05:59;;;;;;;56.22;41.90;;;;;;;;;;5023483;28;20034;-77
2021/12/29 09:08:25;;;;;;;51.80;37.85;;;;;;;;;;5036329;28;20022;-77
2021/12/29 09:10:56;;;;;;;48.17;35.95;;;;;;;;;;5041911;28;20033;-75
2021/12/29 09:13:22;;;;;;;50.30;35.35;;;;;;;;;;5033838;28;20017;-74
2021/12/29 09:15:56;;;;;;;57.47;38.30;;;;;;;;;;5037371;28;20017;-75
2021/12/29 09:18:23;;;;;;;56.03;38.05;;;;;;;;;;5048426;28;20100;-75
2021/12/29 09:20:49;;;;;;;65.05;45.67;;;;;;;;;;5033422;28;20025;-75
2021/12/29 09:23:18;;;;;;;66.28;45.47;;;;;;;;;;5033102;28;20079;-75
2021/12/29 09:25:46;;;;;;;42.40;30.25;;;;;;;;;;5036880;28;20104;-75
2021/12/29 09:28:15;;;;;;;37.65;26.63;;;;;;;;;;5037368;28;20029;-75
2021/12/29 09:30:43;;;;;;;35.10;25.33;;;;;;;;;;5036936;28;20487;-75
2021/12/29 09:33:09;;;;;;;35.67;25.45;;;;;;;;;;5050979;28;20542;-75
2021/12/29 09:35:36;;;;;;;34.90;24.40;;;;;;;;;;5034357;28;20017;-75
2021/12/29 09:38:05;;;;;;;41.47;25.92;;;;;;;;;;5035702;28;20025;-75
2021/12/29 09:40:31;;;;;;;43.10;31.08;;;;;;;;;;5035429;28;20625;-75
2021/12/29 09:42:57;;;;;;;56.85;41.25;;;;;;;;;;5036701;28;20109;-75
2021/12/29 09:45:24;;;;;;;70.80;48.60;;;;;;;;;;5036878;28;20028;-75
2021/12/29 09:47:50;;;;;;;88.78;55.28;;;;;;;;;;5052544;28;20095;-75
2021/12/29 09:50:17;;;;;;;109.65;63.08;;;;;;;;;;5038340;28;20037;-75
2021/12/29 09:52:43;;;;;;;92.47;58.50;;;;;;;;;;5037565;28;20033;-75
2021/12/29 09:55:11;;;;;;;96.72;60.15;;;;;;;;;;5037220;28;20025;-74
2021/12/29 09:57:38;;;;;;;98.60;57.35;;;;;;;;;;5038746;28;20017;-75
2021/12/29 10:00:09;;;;;;;89.43;57.72;;;;;;;;;;5049707;28;20045;-75
2021/12/29 10:02:37;;;;;;;86.70;56.45;;;;;;;;;;5055743;28;20490;-75
2021/12/29 10:05:06;;;;;;;90.32;56.13;;;;;;;;;;5055313;28;20031;-75
2021/12/29 10:07:32;;;;;;;115.72;61.58;;;;;;;;;;5053279;28;20025;-75
2021/12/29 10:10:01;;;;;;;109.30;60.40;;;;;;;;;;5054039;28;20045;-75
2021/12/29 10:12:27;;;;;;;101.75;58.78;;;;;;;;;;5054555;28;20492;-75
2021/12/29 10:14:55;;;;;;;97.88;58.80;;;;;;;;;;5053985;28;20082;-75
2021/12/29 10:17:30;;;;;;;106.32;60.75;;;;;;;;;;5051658;28;20104;-74
2021/12/29 10:20:10;;;;;;;89.53;53.47;;;;;;;;;;5057090;28;20060;-75
2021/12/29 10:22:39;;;;;;;113.00;62.70;;;;;;;;;;5055515;28;20075;-75
2021/12/29 10:25:05;;;;;;;116.80;62.80;;;;;;;;;;5056067;28;20025;-75
2021/12/29 10:27:31;;;;;;;90.50;56.45;;;;;;;;;;5057072;28;20021;-75
2021/12/29 10:29:57;;;;;;;86.38;54.22;;;;;;;;;;5060498;28;20041;-75
2021/12/29 10:32:24;;;;;;;85.65;52.53;;;;;;;;;;5056680;28;20039;-75
2021/12/29 10:34:53;;;;;;;83.20;51.35;;;;;;;;;;5055061;28;20067;-75
2021/12/29 10:37:23;;;;;;;83.63;53.75;;;;;;;;;;5055006;28;20048;-75
2021/12/29 10:39:50;;;;;;;85.13;54.63;;;;;;;;;;5065354;28;21665;-77
2021/12/29 10:42:21;;;;;;;80.68;52.00;;;;;;;;;;5056644;28;20083;-75
2021/12/29 10:44:51;;;;;;;78.82;50.53;;;;;;;;;;5069287;28;20036;-70
2021/12/29 10:47:24;;;;;;;79.22;50.67;;;;;;;;;;5053978;28;20055;-74
2021/12/29 10:49:59;;;;;;;85.97;53.95;;;;;;;;;;5058023;28;20040;-75
2021/12/29 10:52:30;;;;;;;79.53;50.58;;;;;;;;;;5059299;28;20098;-74
2021/12/29 10:54:56;;;;;;;73.22;45.65;;;;;;;;;;5055549;28;20029;-73
2021/12/29 10:57:22;;;;;;;62.40;40.15;;;;;;;;;;5058278;28;20493;-75
2021/12/29 10:59:55;;;;;;;55.47;37.47;;;;;;;;;;5059536;28;20017;-73
2021/12/29 11:02:26;;;;;;;44.95;32.72;;;;;;;;;;5054445;28;20056;-73
2021/12/29 11:04:57;;;;;;;47.22;33.38;;;;;;;;;;5058546;28;20026;-76
2021/12/29 11:07:34;;;;;;;51.55;37.25;;;;;;;;;;5059574;28;20017;-73
2021/12/29 11:10:14;;;;;;;45.58;33.10;;;;;;;;;;5051403;28;20048;-71
2021/12/29 11:12:45;;;;;;;51.60;35.72;;;;;;;;;;5062039;28;20025;-74
2021/12/29 11:15:19;;;;;;;44.15;32.13;;;;;;;;;;5059015;28;20033;-76
2021/12/29 11:17:47;;;;;;;47.17;33.25;;;;;;;;;;5046411;28;20037;-77
2021/12/29 11:20:21;;;;;;;52.92;36.67;;;;;;;;;;5056361;28;20029;-76
2021/12/29 11:22:50;;;;;;;49.13;34.10;;;;;;;;;;5046463;28;20233;-75
2021/12/29 11:25:27;;;;;;;46.22;33.67;;;;;;;;;;5061074;28;20033;-76
2021/12/29 11:27:57;;;;;;;51.40;35.60;;;;;;;;;;5056165;28;20029;-74
2021/12/29 11:30:23;;;;;;;51.60;34.63;;;;;;;;;;5057252;28;20036;-75
2021/12/29 11:32:50;;;;;;;53.38;37.10;;;;;;;;;;5052531;28;20120;-74
2021/12/29 11:35:24;;;;;;;57.17;40.25;;;;;;;;;;5054954;28;20108;-74
2021/12/29 11:37:57;;;;;;;66.82;43.70;;;;;;;;;;5054873;28;20021;-77
2021/12/29 11:40:26;;;;;;;77.97;51.58;;;;;;;;;;5054981;28;20025;-70
2021/12/29 11:42:53;;;;;;;79.22;52.15;;;;;;;;;;5064149;28;20071;-76
2021/12/29 11:45:19;;;;;;;93.70;62.80;;;;;;;;;;5063814;28;20028;-75
2021/12/29 11:47:56;;;;;;;77.78;51.15;;;;;;;;;;5062791;28;20090;-76
2021/12/29 11:50:35;;;;;;;71.95;47.05;;;;;;;;;;5056039;28;20406;-76
2021/12/29 11:53:09;;;;;;;68.97;44.85;;;;;;;;;;5060557;28;20040;-76
2021/12/29 11:55:56;;;;;;;86.18;56.72;;;;;;;;;;5057240;28;20368;-74
2021/12/29 11:58:27;;;;;;;82.10;48.55;;;;;;;;;;5056558;28;20039;-75
2021/12/29 12:01:08;;;;;;;295.95;174.85;;;;;;;;;;5058389;28;20075;-73
2021/12/29 12:03:52;;;;;;;74.55;48.55;;;;;;;;;;5050922;28;20127;-70
2021/12/29 12:06:24;;;;;;;547.35;349.63;;;;;;;;;;5054213;28;20048;-74
2021/12/29 12:09:25;;;;;;;131.88;80.25;;;;;;;;;;5071929;28;20032;-76
2021/12/29 12:11:55;;;;;;;218.18;140.18;;;;;;;;;;4976236;28;20051;-75
2021/12/29 12:14:23;;;;;;;130.68;79.40;;;;;;;;;;4972599;28;20448;-75
2021/12/29 12:16:59;;;;;;;307.08;167.98;;;;;;;;;;4976026;28;20178;-72
2021/12/29 12:19:26;;;;;;;191.85;106.80;;;;;;;;;;4975333;28;20035;-76
2021/12/29 12:22:06;;;;;;;267.98;142.45;;;;;;;;;;4964200;28;20085;-77
2021/12/29 12:24:32;;;;;;;173.32;92.80;;;;;;;;;;4972921;28;20035;-73
2021/12/29 12:27:04;;;;;;;239.98;125.47;;;;;;;;;;4958505;28;20117;-76
2021/12/29 12:29:35;;;;;;;223.48;118.60;;;;;;;;;;4973554;28;20070;-74
2021/12/29 12:32:10;;;;;;;253.25;132.43;;;;;;;;;;4974115;28;20753;-74
2021/12/29 12:34:49;;;;;;;316.35;168.55;;;;;;;;;;4971583;28;20035;-76
2021/12/29 12:37:17;;;;;;;293.85;155.48;;;;;;;;;;4978097;28;20696;-75
2021/12/29 12:40:18;;;;;;;196.23;104.55;;;;;;;;;;4978648;28;20089;-78
2021/12/29 12:42:47;;;;;;;285.58;161.20;;;;;;;;;;4903915;29;20059;-77
2021/12/29 12:45:21;;;;;;;217.75;118.28;;;;;;;;;;4918310;29;20482;-75
2021/12/29 12:47:47;;;;;;;233.27;127.88;;;;;;;;;;4929147;28;20074;-75
2021/12/29 12:50:23;;;;;;;209.05;117.53;;;;;;;;;;4972217;28;20527;-77
2021/12/29 12:52:51;;;;;;;274.95;153.27;;;;;;;;;;4955455;28;20049;-75
2021/12/29 12:55:20;;;;;;;257.08;143.18;;;;;;;;;;4946127;28;20031;-75
2021/12/29 12:57:50;;;;;;;385.70;220.93;;;;;;;;;;4969367;28;20553;-75
2021/12/29 13:00:26;;;;;;;216.90;118.78;;;;;;;;;;4952397;28;20035;-75
2021/12/29 13:03:04;;;;;;;264.92;143.48;;;;;;;;;;4971225;28;20661;-77
2021/12/29 13:05:30;;;;;;;268.48;145.93;;;;;;;;;;4967911;28;20027;-75
2021/12/29 13:08:05;;;;;;;167.90;92.57;;;;;;;;;;4970352;28;20439;-77
2021/12/29 13:10:45;;;;;;;265.25;146.05;;;;;;;;;;4983482;28;20051;-75
2021/12/29 13:13:15;;;;;;;286.27;160.20;;;;;;;;;;4957506;28;20137;-75
2021/12/29 13:15:42;;;;;;;166.52;93.90;;;;;;;;;;4953975;28;20118;-73
2021/12/29 13:18:08;;;;;;;148.38;79.10;;;;;;;;;;4956009;28;20027;-75
2021/12/29 13:20:35;;;;;;;343.00;187.65;;;;;;;;;;5040756;28;20037;-74
2021/12/29 13:23:01;;;;;;;274.27;142.65;;;;;;;;;;5050575;28;20029;-75
2021/12/29 13:25:28;;;;;;;400.48;216.25;;;;;;;;;;5052129;28;20453;-73
2021/12/29 13:28:02;;;;;;;257.13;133.50;;;;;;;;;;5051187;28;20029;-73
2021/12/29 13:30:36;;;;;;;350.52;174.05;;;;;;;;;;5048884;28;20036;-74
2021/12/29 13:33:02;;;;;;;422.35;217.18;;;;;;;;;;5052341;28;20029;-72
2021/12/29 13:35:30;;;;;;;254.52;127.95;;;;;;;;;;5039028;28;20025;-73
2021/12/29 13:37:57;;;;;;;412.65;214.30;;;;;;;;;;5049662;28;20082;-76
2021/12/29 13:40:31;;;;;;;310.42;160.68;;;;;;;;;;5051810;28;20039;-75
2021/12/29 13:42:57;;;;;;;290.40;149.23;;;;;;;;;;5053476;28;20029;-74
2021/12/29 13:45:27;;;;;;;316.35;161.88;;;;;;;;;;5057221;28;20052;-73
2021/12/29 13:47:54;;;;;;;234.40;124.85;;;;;;;;;;5054009;28;20163;-75
2021/12/29 13:50:20;;;;;;;171.70;92.00;;;;;;;;;;5052574;28;20033;-75
2021/12/29 13:52:57;;;;;;;138.30;76.15;;;;;;;;;;5053103;28;20110;-75
2021/12/29 13:55:31;;;;;;;254.95;136.82;;;;;;;;;;5052153;28;20075;-76
2021/12/29 13:57:57;;;;;;;237.55;122.68;;;;;;;;;;5053439;28;20036;-72
2021/12/29 14:00:24;;;;;;;138.18;75.78;;;;;;;;;;5052914;28;20025;-73
2021/12/29 14:02:50;;;;;;;185.18;95.35;;;;;;;;;;5053517;28;20045;-74
2021/12/29 14:05:16;;;;;;;129.57;70.35;;;;;;;;;;5053408;28;20075;-74
2021/12/29 14:07:43;;;;;;;199.25;101.30;;;;;;;;;;5052178;28;20477;-74
2021/12/29 14:10:14;;;;;;;242.10;120.20;;;;;;;;;;5052532;28;20041;-74
2021/12/29 14:12:40;;;;;;;148.88;81.00;;;;;;;;;;5054939;28;20028;-72
2021/12/29 14:15:20;;;;;;;139.77;76.95;;;;;;;;;;5062156;28;20033;-73
2021/12/29 14:17:52;;;;;;;225.50;120.90;;;;;;;;;;5055371;28;20067;-73
2021/12/29 14:20:24;;;;;;;174.95;94.10;;;;;;;;;;5052748;28;20548;-73
2021/12/29 14:23:01;;;;;;;218.45;122.80;;;;;;;;;;5053475;28;20497;-73
2021/12/29 14:25:33;;;;;;;161.88;93.25;;;;;;;;;;5049946;28;20025;-73